^^
Saratoga-Weather Station Historical Data
Daily Summary for February 3, 2020 Units:  Both    English   Metric
Daily Weekly Monthly Yearly Custom
  High: Low: Average:
Temperature: 70.5 °F /  21.4 °C 60.4 °F /  15.8 °C 64.4 °F /  18 °C
Dew Point: 59.4 °F /  15.2 °C 54.5 °F /  12.5 °C 56.1 °F /  13.4 °C
Humidity: 88% 59% 75%
Wind Speed: 8.9mph /  14.3km/h - 1.4mph /  2.3km/h
Wind Gust: 11mph /  17.7km/h - -
Wind- - West
Pressure: 29.9 in /  1013.2 hPa 29.8 in /  1010.5 hPa -
Precipitation: 0.01 in /  0.2 mm    
Historical Graphs
 
 
Tabular Data for February 3, 2020
Time Temperature Dew Point Pressure Wind Wind Speed Wind Gust Humidity Rainfall Rate (Hourly) solar
00:00 66.6 °F /  19.2 °C 54.9 °F /  12.7 °C 29.9in /  1012.9hPa West 2.9mph /  4.7km/h 3mph /  4.8km/h 66% 0in /  0.0mm 0 W/m2
00:05 66.6 °F /  19.2 °C 55.2 °F /  12.9 °C 29.9in /  1013.2hPa WSW 2mph /  3.2km/h 3mph /  4.8km/h 67% 0in /  0.0mm 0 W/m2
00:10 66.6 °F /  19.2 °C 55.2 °F /  12.9 °C 29.9in /  1013.2hPa SW 4mph /  6.4km/h 4mph /  6.4km/h 67% 0in /  0.0mm 0 W/m2
00:15 66.6 °F /  19.2 °C 55.2 °F /  12.9 °C 29.9in /  1012.9hPa West 2mph /  3.2km/h 3mph /  4.8km/h 67% 0in /  0.0mm 0 W/m2
00:20 66.6 °F /  19.2 °C 55.6 °F /  13.1 °C 29.9in /  1013.2hPa WNW 2mph /  3.2km/h 4mph /  6.4km/h 68% 0in /  0.0mm 0 W/m2
00:26 66.4 °F /  19.1 °C 55.6 °F /  13.1 °C 29.9in /  1013.2hPa SW 2.9mph /  4.7km/h 3mph /  4.8km/h 68% 0in /  0.0mm 0 W/m2
00:31 66.4 °F /  19.1 °C 55.6 °F /  13.1 °C 29.9in /  1013.2hPa West 2.9mph /  4.7km/h 4mph /  6.4km/h 68% 0in /  0.0mm 0 W/m2
00:36 66 °F /  18.9 °C 55.6 °F /  13.1 °C 29.9in /  1013.2hPa West 0.9mph /  1.4km/h 3mph /  4.8km/h 69% 0in /  0.0mm 0 W/m2
00:41 65.8 °F /  18.8 °C 55.4 °F /  13 °C 29.9in /  1013.2hPa West 2mph /  3.2km/h 4mph /  6.4km/h 69% 0in /  0.0mm 0 W/m2
00:46 65.7 °F /  18.7 °C 55.6 °F /  13.1 °C 29.9in /  1012.9hPa West 0.9mph /  1.4km/h 3mph /  4.8km/h 70% 0in /  0.0mm 0 W/m2
00:51 65.5 °F /  18.6 °C 55.4 °F /  13 °C 29.9in /  1013.2hPa West 2mph /  3.2km/h 4mph /  6.4km/h 70% 0in /  0.0mm 0 W/m2
00:56 65.3 °F /  18.5 °C 55.2 °F /  12.9 °C 29.9in /  1013.2hPa West 0.9mph /  1.4km/h 2mph /  3.2km/h 70% 0in /  0.0mm 0 W/m2
01:01 65.1 °F /  18.4 °C 55.4 °F /  13 °C 29.9in /  1013.2hPa WSW 0.9mph /  1.4km/h 3mph /  4.8km/h 71% 0in /  0.0mm 0 W/m2
01:06 64.9 °F /  18.3 °C 55.4 °F /  13 °C 29.9in /  1013.2hPa West 2mph /  3.2km/h 3mph /  4.8km/h 71% 0in /  0.0mm 0 W/m2
01:11 64.9 °F /  18.3 °C 55.8 °F /  13.2 °C 29.9in /  1013.2hPa West 2mph /  3.2km/h 3mph /  4.8km/h 72% 0in /  0.0mm 0 W/m2
01:16 64.9 °F /  18.3 °C 55.8 °F /  13.2 °C 29.9in /  1013.2hPa West 2mph /  3.2km/h 3mph /  4.8km/h 72% 0in /  0.0mm 0 W/m2
01:21 64.8 °F /  18.2 °C 55.6 °F /  13.1 °C 29.9in /  1013.2hPa West 2mph /  3.2km/h 2mph /  3.2km/h 72% 0in /  0.0mm 0 W/m2
01:26 64.6 °F /  18.1 °C 55.4 °F /  13 °C 29.9in /  1013.2hPa West 2mph /  3.2km/h 3mph /  4.8km/h 72% 0in /  0.0mm 0 W/m2
01:31 64.4 °F /  18 °C 55.6 °F /  13.1 °C 29.9in /  1012.9hPa WSW 2mph /  3.2km/h 3mph /  4.8km/h 73% 0in /  0.0mm 0 W/m2
01:36 64.2 °F /  17.9 °C 55.4 °F /  13 °C 29.9in /  1013.2hPa West 2mph /  3.2km/h 6mph /  9.7km/h 73% 0in /  0.0mm 0 W/m2
01:41 64.2 °F /  17.9 °C 55.8 °F /  13.2 °C 29.9in /  1012.9hPa Calm   4mph /  6.4km/h 74% 0in /  0.0mm 0 W/m2
01:46 64 °F /  17.8 °C 55.6 °F /  13.1 °C 29.9in /  1013.2hPa West 2mph /  3.2km/h 3mph /  4.8km/h 74% 0in /  0.0mm 0 W/m2
01:52 64 °F /  17.8 °C 55.6 °F /  13.1 °C 29.9in /  1012.9hPa WNW 0.9mph /  1.4km/h 4mph /  6.4km/h 74% 0in /  0.0mm 0 W/m2
01:57 63.9 °F /  17.7 °C 55.4 °F /  13 °C 29.9in /  1012.9hPa West 2mph /  3.2km/h 2mph /  3.2km/h 74% 0in /  0.0mm 0 W/m2
02:02 63.9 °F /  17.7 °C 55.8 °F /  13.2 °C 29.9in /  1012.9hPa West 2mph /  3.2km/h 3mph /  4.8km/h 75% 0in /  0.0mm 0 W/m2
02:07 63.7 °F /  17.6 °C 55.6 °F /  13.1 °C 29.9in /  1012.9hPa Calm   3mph /  4.8km/h 75% 0in /  0.0mm 0 W/m2
02:12 63.7 °F /  17.6 °C 55.6 °F /  13.1 °C 29.9in /  1012.9hPa West 0.9mph /  1.4km/h 1mph /  1.6km/h 75% 0in /  0.0mm 0 W/m2
02:17 63.7 °F /  17.6 °C 55.6 °F /  13.1 °C 29.9in /  1012.9hPa West 0.9mph /  1.4km/h 2mph /  3.2km/h 75% 0in /  0.0mm 0 W/m2
02:22 63.5 °F /  17.5 °C 55.4 °F /  13 °C 29.9in /  1012.9hPa West 0.9mph /  1.4km/h 3mph /  4.8km/h 75% 0in /  0.0mm 0 W/m2
02:27 63.3 °F /  17.4 °C 55.6 °F /  13.1 °C 29.9in /  1012.9hPa Calm   2mph /  3.2km/h 76% 0in /  0.0mm 0 W/m2
02:32 63.1 °F /  17.3 °C 55.4 °F /  13 °C 29.9in /  1012.9hPa West 0.9mph /  1.4km/h 3mph /  4.8km/h 76% 0in /  0.0mm 0 W/m2
02:37 63 °F /  17.2 °C 55.6 °F /  13.1 °C 29.9in /  1012.9hPa Calm     77% 0in /  0.0mm 0 W/m2
02:42 62.8 °F /  17.1 °C 55.4 °F /  13 °C 29.9in /  1012.9hPa WSW 0.9mph /  1.4km/h 2mph /  3.2km/h 77% 0in /  0.0mm 0 W/m2
02:47 62.8 °F /  17.1 °C 55.4 °F /  13 °C 29.9in /  1012.9hPa WSW 2mph /  3.2km/h 3mph /  4.8km/h 77% 0in /  0.0mm 0 W/m2
02:52 62.8 °F /  17.1 °C 55.8 °F /  13.2 °C 29.9in /  1012.9hPa Calm   1mph /  1.6km/h 78% 0in /  0.0mm 0 W/m2
02:57 62.6 °F /  17 °C 55.6 °F /  13.1 °C 29.9in /  1012.9hPa WSW 0.9mph /  1.4km/h 2mph /  3.2km/h 78% 0in /  0.0mm 0 W/m2
03:02 62.4 °F /  16.9 °C 55.4 °F /  13 °C 29.9in /  1012.9hPa SW 0.9mph /  1.4km/h 2mph /  3.2km/h 78% 0in /  0.0mm 0 W/m2
03:07 62.6 °F /  17 °C 55.6 °F /  13.1 °C 29.9in /  1012.9hPa Calm   3mph /  4.8km/h 78% 0in /  0.0mm 0 W/m2
03:12 62.6 °F /  17 °C 55.6 °F /  13.1 °C 29.9in /  1012.9hPa West 0.9mph /  1.4km/h 1mph /  1.6km/h 78% 0in /  0.0mm 0 W/m2
03:17 62.4 °F /  16.9 °C 55.4 °F /  13 °C 29.9in /  1012.5hPa WSW 0.9mph /  1.4km/h 2mph /  3.2km/h 78% 0in /  0.0mm 0 W/m2
03:22 62.2 °F /  16.8 °C 55.2 °F /  12.9 °C 29.9in /  1012.5hPa Calm     78% 0in /  0.0mm 0 W/m2
03:27 62.1 °F /  16.7 °C 55.4 °F /  13 °C 29.9in /  1012.5hPa Calm     79% 0in /  0.0mm 0 W/m2
03:32 62.1 °F /  16.7 °C 55.4 °F /  13 °C 29.9in /  1012.5hPa Calm     79% 0in /  0.0mm 0 W/m2
03:37 61.9 °F /  16.6 °C 55.2 °F /  12.9 °C 29.9in /  1012.5hPa Calm   1mph /  1.6km/h 79% 0in /  0.0mm 0 W/m2
03:42 61.9 °F /  16.6 °C 55.2 °F /  12.9 °C 29.9in /  1012.5hPa Calm   1mph /  1.6km/h 79% 0in /  0.0mm 0 W/m2
03:47 61.9 °F /  16.6 °C 55.2 °F /  12.9 °C 29.9in /  1012.5hPa WSW 0.9mph /  1.4km/h 1mph /  1.6km/h 79% 0in /  0.0mm 0 W/m2
03:52 61.9 °F /  16.6 °C 55.2 °F /  12.9 °C 29.9in /  1012.5hPa Calm   1mph /  1.6km/h 79% 0in /  0.0mm 0 W/m2
03:57 61.9 °F /  16.6 °C 55.2 °F /  12.9 °C 29.9in /  1012.5hPa Calm   1mph /  1.6km/h 79% 0in /  0.0mm 0 W/m2
04:02 61.9 °F /  16.6 °C 55.2 °F /  12.9 °C 29.9in /  1012.5hPa Calm   1mph /  1.6km/h 79% 0in /  0.0mm 0 W/m2
04:07 61.9 °F /  16.6 °C 55.2 °F /  12.9 °C 29.9in /  1012.5hPa Calm   2mph /  3.2km/h 79% 0in /  0.0mm 0 W/m2
04:12 62.1 °F /  16.7 °C 55.4 °F /  13 °C 29.9in /  1012.2hPa Calm   1mph /  1.6km/h 79% 0in /  0.0mm 0 W/m2
04:17 62.1 °F /  16.7 °C 55.4 °F /  13 °C 29.9in /  1012.2hPa Calm   2mph /  3.2km/h 79% 0in /  0.0mm 0 W/m2
04:22 62.2 °F /  16.8 °C 55.6 °F /  13.1 °C 29.9in /  1012.2hPa WNW 0.9mph /  1.4km/h 1mph /  1.6km/h 79% 0in /  0.0mm 0 W/m2
04:28 62.2 °F /  16.8 °C 55.6 °F /  13.1 °C 29.9in /  1012.2hPa Calm     79% 0in /  0.0mm 0 W/m2
04:33 62.2 °F /  16.8 °C 55.6 °F /  13.1 °C 29.9in /  1012.2hPa Calm     79% 0in /  0.0mm 0 W/m2
04:38 62.2 °F /  16.8 °C 55.6 °F /  13.1 °C 29.9in /  1012.2hPa Calm   1mph /  1.6km/h 79% 0in /  0.0mm 0 W/m2
04:43 62.1 °F /  16.7 °C 55.4 °F /  13 °C 29.9in /  1012.2hPa Calm     79% 0in /  0.0mm 0 W/m2
04:48 62.1 °F /  16.7 °C 55.4 °F /  13 °C 29.9in /  1012.2hPa Calm   1mph /  1.6km/h 79% 0in /  0.0mm 0 W/m2
04:53 62.1 °F /  16.7 °C 55.8 °F /  13.2 °C 29.9in /  1012.2hPa Calm   2mph /  3.2km/h 80% 0in /  0.0mm 0 W/m2
04:58 61.9 °F /  16.6 °C 55.6 °F /  13.1 °C 29.9in /  1012.2hPa Calm   1mph /  1.6km/h 80% 0in /  0.0mm 0 W/m2
05:03 61.9 °F /  16.6 °C 55.2 °F /  12.9 °C 29.9in /  1012.2hPa NW 2.9mph /  4.7km/h 3mph /  4.8km/h 79% 0in /  0.0mm 0 W/m2
05:08 62.1 °F /  16.7 °C 55.4 °F /  13 °C 29.9in /  1012.2hPa NW 2mph /  3.2km/h 2mph /  3.2km/h 79% 0in /  0.0mm 0 W/m2
05:13 62.2 °F /  16.8 °C 55.6 °F /  13.1 °C 29.9in /  1012.2hPa Calm   1mph /  1.6km/h 79% 0in /  0.0mm 0 W/m2
05:18 62.2 °F /  16.8 °C 55.6 °F /  13.1 °C 29.9in /  1012.2hPa Calm   1mph /  1.6km/h 79% 0in /  0.0mm 0 W/m2
05:23 62.1 °F /  16.7 °C 55.4 °F /  13 °C 29.9in /  1012.2hPa SW 0.9mph /  1.4km/h 2mph /  3.2km/h 79% 0in /  0.0mm 0 W/m2
05:28 62.1 °F /  16.7 °C 55.4 °F /  13 °C 29.9in /  1012.2hPa Calm   1mph /  1.6km/h 79% 0in /  0.0mm 0 W/m2
05:33 61.9 °F /  16.6 °C 55.2 °F /  12.9 °C 29.9in /  1012.2hPa West 0.9mph /  1.4km/h 1mph /  1.6km/h 79% 0in /  0.0mm 0 W/m2
05:38 61.9 °F /  16.6 °C 55.2 °F /  12.9 °C 29.9in /  1012.2hPa Calm   5mph /  8km/h 79% 0in /  0.0mm 0 W/m2
05:43 62.1 °F /  16.7 °C 55.4 °F /  13 °C 29.9in /  1012.2hPa West 0.9mph /  1.4km/h 3mph /  4.8km/h 79% 0in /  0.0mm 0 W/m2
05:48 62.2 °F /  16.8 °C 55.2 °F /  12.9 °C 29.9in /  1012.2hPa West 0.9mph /  1.4km/h 4mph /  6.4km/h 78% 0in /  0.0mm 0 W/m2
05:53 62.2 °F /  16.8 °C 55.2 °F /  12.9 °C 29.9in /  1012.2hPa West 2mph /  3.2km/h 2mph /  3.2km/h 78% 0in /  0.0mm 0 W/m2
05:58 62.2 °F /  16.8 °C 55.2 °F /  12.9 °C 29.9in /  1012.2hPa WNW 2mph /  3.2km/h 2mph /  3.2km/h 78% 0in /  0.0mm 0 W/m2
06:03 62.2 °F /  16.8 °C 55.2 °F /  12.9 °C 29.9in /  1012.2hPa Calm   2mph /  3.2km/h 78% 0in /  0.0mm 0 W/m2
06:08 62.1 °F /  16.7 °C 55.4 °F /  13 °C 29.9in /  1012.2hPa WNW 0.9mph /  1.4km/h 2mph /  3.2km/h 79% 0in /  0.0mm 5 W/m2
06:13 62.1 °F /  16.7 °C 55.4 °F /  13 °C 29.9in /  1012.2hPa Calm   1mph /  1.6km/h 79% 0in /  0.0mm 7 W/m2
06:19 61.9 °F /  16.6 °C 55.2 °F /  12.9 °C 29.9in /  1012.2hPa Calm     79% 0in /  0.0mm 11 W/m2
06:24 61.9 °F /  16.6 °C 55.2 °F /  12.9 °C 29.9in /  1012.5hPa Calm   1mph /  1.6km/h 79% 0in /  0.0mm 12 W/m2
06:29 61.7 °F /  16.5 °C 55 °F /  12.8 °C 29.9in /  1012.2hPa SW 2mph /  3.2km/h 2mph /  3.2km/h 79% 0in /  0.0mm 19 W/m2
06:34 61.5 °F /  16.4 °C 54.9 °F /  12.7 °C 29.9in /  1012.5hPa Calm   1mph /  1.6km/h 79% 0in /  0.0mm 25 W/m2
06:39 61.5 °F /  16.4 °C 54.9 °F /  12.7 °C 29.9in /  1012.2hPa SE 2mph /  3.2km/h 2mph /  3.2km/h 79% 0in /  0.0mm 26 W/m2
06:44 61.7 °F /  16.5 °C 54.9 °F /  12.7 °C 29.9in /  1012.5hPa Calm   1mph /  1.6km/h 78% 0in /  0.0mm 28 W/m2
06:49 61.7 °F /  16.5 °C 54.9 °F /  12.7 °C 29.9in /  1012.5hPa Calm   1mph /  1.6km/h 78% 0in /  0.0mm 26 W/m2
06:54 61.7 °F /  16.5 °C 54.9 °F /  12.7 °C 29.9in /  1012.5hPa Calm   3mph /  4.8km/h 78% 0in /  0.0mm 28 W/m2
06:59 61.9 °F /  16.6 °C 54.9 °F /  12.7 °C 29.9in /  1012.5hPa Calm   1mph /  1.6km/h 78% 0in /  0.0mm 37 W/m2
07:04 61.9 °F /  16.6 °C 54.9 °F /  12.7 °C 29.9in /  1012.5hPa Calm   3mph /  4.8km/h 78% 0in /  0.0mm 40 W/m2
07:09 61.9 °F /  16.6 °C 54.9 °F /  12.7 °C 29.9in /  1012.5hPa Calm     78% 0in /  0.0mm 35 W/m2
07:14 61.9 °F /  16.6 °C 54.9 °F /  12.7 °C 29.9in /  1012.5hPa Calm   2mph /  3.2km/h 78% 0in /  0.0mm 30 W/m2
07:19 61.9 °F /  16.6 °C 54.9 °F /  12.7 °C 29.9in /  1012.5hPa Calm   2mph /  3.2km/h 78% 0in /  0.0mm 32 W/m2
07:24 62.1 °F /  16.7 °C 55 °F /  12.8 °C 29.9in /  1012.5hPa NNE 0.9mph /  1.4km/h 2mph /  3.2km/h 78% 0in /  0.0mm 37 W/m2
07:29 62.1 °F /  16.7 °C 55 °F /  12.8 °C 29.9in /  1012.5hPa Calm   1mph /  1.6km/h 78% 0in /  0.0mm 44 W/m2
07:35 62.1 °F /  16.7 °C 54.7 °F /  12.6 °C 29.9in /  1012.5hPa ENE 2mph /  3.2km/h 3mph /  4.8km/h 77% 0in /  0.0mm 47 W/m2
07:40 62.1 °F /  16.7 °C 54.7 °F /  12.6 °C 29.9in /  1012.5hPa WNW 0.9mph /  1.4km/h 2mph /  3.2km/h 77% 0in /  0.0mm 51 W/m2
07:45 62.1 °F /  16.7 °C 54.7 °F /  12.6 °C 29.9in /  1012.2hPa Calm   1mph /  1.6km/h 77% 0in /  0.0mm 51 W/m2
07:50 62.1 °F /  16.7 °C 54.7 °F /  12.6 °C 29.9in /  1012.2hPa Calm   2mph /  3.2km/h 77% 0in /  0.0mm 54 W/m2
07:55 62.2 °F /  16.8 °C 54.9 °F /  12.7 °C 29.9in /  1012.2hPa Calm   3mph /  4.8km/h 77% 0in /  0.0mm 58 W/m2
08:00 62.2 °F /  16.8 °C 54.9 °F /  12.7 °C 29.9in /  1012.2hPa Calm   1mph /  1.6km/h 77% 0in /  0.0mm 54 W/m2
08:05 62.2 °F /  16.8 °C 54.9 °F /  12.7 °C 29.9in /  1012.2hPa Calm   3mph /  4.8km/h 77% 0in /  0.0mm 49 W/m2
08:10 62.2 °F /  16.8 °C 54.5 °F /  12.5 °C 29.9in /  1012.2hPa Calm   1mph /  1.6km/h 76% 0in /  0.0mm 53 W/m2
08:15 62.4 °F /  16.9 °C 54.7 °F /  12.6 °C 29.9in /  1012.2hPa NE 0.9mph /  1.4km/h 1mph /  1.6km/h 76% 0in /  0.0mm 67 W/m2
08:20 62.4 °F /  16.9 °C 55 °F /  12.8 °C 29.9in /  1012.2hPa Calm     77% 0in /  0.0mm 74 W/m2
08:25 62.4 °F /  16.9 °C 54.7 °F /  12.6 °C 29.9in /  1012.2hPa West 2mph /  3.2km/h 3mph /  4.8km/h 76% 0in /  0.0mm 74 W/m2
08:30 62.6 °F /  17 °C 54.9 °F /  12.7 °C 29.9in /  1012.2hPa Calm   1mph /  1.6km/h 76% 0in /  0.0mm 79 W/m2
08:35 62.8 °F /  17.1 °C 55 °F /  12.8 °C 29.9in /  1012.2hPa Calm   3mph /  4.8km/h 76% 0in /  0.0mm 58 W/m2
08:40 62.8 °F /  17.1 °C 54.7 °F /  12.6 °C 29.9in /  1012.2hPa ENE 0.9mph /  1.4km/h 3mph /  4.8km/h 75% 0in /  0.0mm 42 W/m2
08:45 62.8 °F /  17.1 °C 54.7 °F /  12.6 °C 29.9in /  1012.2hPa North 0.9mph /  1.4km/h 1mph /  1.6km/h 75% 0in /  0.0mm 33 W/m2
08:50 62.8 °F /  17.1 °C 54.7 °F /  12.6 °C 29.9in /  1012.2hPa NE 0.9mph /  1.4km/h 3mph /  4.8km/h 75% 0in /  0.0mm 26 W/m2
08:55 62.8 °F /  17.1 °C 54.7 °F /  12.6 °C 29.9in /  1012.2hPa NNW 2mph /  3.2km/h 2mph /  3.2km/h 75% 0in /  0.0mm 25 W/m2
09:00 62.8 °F /  17.1 °C 54.7 °F /  12.6 °C 29.9in /  1012.2hPa NNW 2.9mph /  4.7km/h 3mph /  4.8km/h 75% 0in /  0.0mm 23 W/m2
09:05 62.6 °F /  17 °C 54.9 °F /  12.7 °C 29.9in /  1012.2hPa Calm   1mph /  1.6km/h 76% 0in /  0.0mm 21 W/m2
09:10 62.6 °F /  17 °C 55.2 °F /  12.9 °C 29.9in /  1012.2hPa Calm   1mph /  1.6km/h 77% 0in /  0.0mm 21 W/m2
09:15 62.4 °F /  16.9 °C 55.4 °F /  13 °C 29.9in /  1012.2hPa Calm     78% 0in /  0.0mm 21 W/m2
09:20 62.2 °F /  16.8 °C 55.2 °F /  12.9 °C 29.9in /  1012.2hPa WNW 0.9mph /  1.4km/h 2mph /  3.2km/h 78% 0in /  0.0mm 25 W/m2
09:25 62.1 °F /  16.7 °C 55.8 °F /  13.2 °C 29.9in /  1011.9hPa Calm   2mph /  3.2km/h 80% 0in /  0.0mm 26 W/m2
09:30 61.9 °F /  16.6 °C 55.9 °F /  13.3 °C 29.9in /  1012.2hPa WNW 0.9mph /  1.4km/h 1mph /  1.6km/h 81% 0in /  0.0mm 25 W/m2
09:35 61.7 °F /  16.5 °C 56.5 °F /  13.6 °C 29.9in /  1012.2hPa WNW 0.9mph /  1.4km/h 1mph /  1.6km/h 83% 0.01in /  0.2mm 23 W/m2
09:40 61.5 °F /  16.4 °C 57 °F /  13.9 °C 29.9in /  1011.9hPa Calm     85% 0.01in /  0.2mm 28 W/m2
09:45 61.3 °F /  16.3 °C 57.2 °F /  14 °C 29.9in /  1011.9hPa WNW 3mph /  4.8km/h 3mph /  4.8km/h 86% 0.01in /  0.2mm 28 W/m2
09:50 61 °F /  16.1 °C 56.8 °F /  13.8 °C 29.9in /  1012.2hPa West 0.9mph /  1.4km/h 2mph /  3.2km/h 86% 0.01in /  0.2mm 32 W/m2
09:55 60.8 °F /  16 °C 56.8 °F /  13.8 °C 29.9in /  1011.9hPa West 2mph /  3.2km/h 3mph /  4.8km/h 87% 0.01in /  0.2mm 37 W/m2
10:00 60.4 °F /  15.8 °C 56.5 °F /  13.6 °C 29.9in /  1012.2hPa West 2mph /  3.2km/h 2mph /  3.2km/h 87% 0.01in /  0.2mm 44 W/m2
10:05 60.4 °F /  15.8 °C 56.8 °F /  13.8 °C 29.9in /  1012.2hPa West 0.9mph /  1.4km/h 2mph /  3.2km/h 88% 0.01in /  0.2mm 56 W/m2
10:10 60.4 °F /  15.8 °C 56.8 °F /  13.8 °C 29.9in /  1011.9hPa Calm     88% 0.01in /  0.2mm 60 W/m2
10:15 60.4 °F /  15.8 °C 56.8 °F /  13.8 °C 29.9in /  1012.2hPa Calm   1mph /  1.6km/h 88% 0.01in /  0.2mm 72 W/m2
10:20 60.6 °F /  15.9 °C 57 °F /  13.9 °C 29.9in /  1011.9hPa WSW 0.9mph /  1.4km/h 3mph /  4.8km/h 88% 0.01in /  0.2mm 88 W/m2
10:25 60.8 °F /  16 °C 57.2 °F /  14 °C 29.9in /  1011.9hPa Calm   2mph /  3.2km/h 88% 0.01in /  0.2mm 111 W/m2
10:30 61 °F /  16.1 °C 57.4 °F /  14.1 °C 29.9in /  1011.9hPa WSW 0.9mph /  1.4km/h 1mph /  1.6km/h 88% 0.01in /  0.2mm 142 W/m2
10:35 61.3 °F /  16.3 °C 57.7 °F /  14.3 °C 29.9in /  1011.9hPa WSW 0.9mph /  1.4km/h 1mph /  1.6km/h 88% 0in /  0.0mm 172 W/m2
10:40 61.9 °F /  16.6 °C 58.3 °F /  14.6 °C 29.9in /  1011.9hPa SSW 0.9mph /  1.4km/h 2mph /  3.2km/h 88% 0in /  0.0mm 229 W/m2
10:45 62.2 °F /  16.8 °C 57.7 °F /  14.3 °C 29.9in /  1011.9hPa West 0.9mph /  1.4km/h 3mph /  4.8km/h 85% 0in /  0.0mm 279 W/m2
10:50 62.8 °F /  17.1 °C 57.9 °F /  14.4 °C 29.9in /  1011.9hPa Calm     84% 0in /  0.0mm 288 W/m2
10:55 63.3 °F /  17.4 °C 57.7 °F /  14.3 °C 29.9in /  1011.9hPa WNW 2mph /  3.2km/h 3mph /  4.8km/h 82% 0in /  0.0mm 274 W/m2
11:00 63.9 °F /  17.7 °C 57.9 °F /  14.4 °C 29.9in /  1011.9hPa West 0.9mph /  1.4km/h 2mph /  3.2km/h 81% 0in /  0.0mm 244 W/m2
11:05 64.2 °F /  17.9 °C 57.9 °F /  14.4 °C 29.9in /  1011.9hPa WNW 2mph /  3.2km/h 3mph /  4.8km/h 80% 0in /  0.0mm 272 W/m2
11:10 64.6 °F /  18.1 °C 57.2 °F /  14 °C 29.9in /  1011.9hPa WNW 0.9mph /  1.4km/h 1mph /  1.6km/h 77% 0in /  0.0mm 295 W/m2
11:16 64.9 °F /  18.3 °C 57.6 °F /  14.2 °C 29.9in /  1011.9hPa Calm   2mph /  3.2km/h 77% 0in /  0.0mm 306 W/m2
11:21 65.1 °F /  18.4 °C 57 °F /  13.9 °C 29.9in /  1011.9hPa Calm     75% 0in /  0.0mm 246 W/m2
11:26 65.7 °F /  18.7 °C 57.2 °F /  14 °C 29.9in /  1011.9hPa Calm   1mph /  1.6km/h 74% 0in /  0.0mm 178 W/m2
11:31 65.8 °F /  18.8 °C 58.1 °F /  14.5 °C 29.9in /  1011.9hPa West 2mph /  3.2km/h 2mph /  3.2km/h 76% 0in /  0.0mm 179 W/m2
11:36 65.7 °F /  18.7 °C 58.3 °F /  14.6 °C 29.9in /  1011.9hPa Calm   2mph /  3.2km/h 77% 0in /  0.0mm 218 W/m2
11:41 65.8 °F /  18.8 °C 58.8 °F /  14.9 °C 29.9in /  1011.9hPa West 4mph /  6.4km/h 4mph /  6.4km/h 78% 0in /  0.0mm 223 W/m2
11:46 65.8 °F /  18.8 °C 58.5 °F /  14.7 °C 29.9in /  1011.9hPa Calm   2mph /  3.2km/h 77% 0in /  0.0mm 183 W/m2
11:51 65.8 °F /  18.8 °C 58.1 °F /  14.5 °C 29.9in /  1011.9hPa West 2mph /  3.2km/h 2mph /  3.2km/h 76% 0in /  0.0mm 214 W/m2
11:56 65.7 °F /  18.7 °C 57.6 °F /  14.2 °C 29.9in /  1011.9hPa West 2mph /  3.2km/h 3mph /  4.8km/h 75% 0in /  0.0mm 248 W/m2
12:01 65.8 °F /  18.8 °C 57.7 °F /  14.3 °C 29.9in /  1011.9hPa WNW 4mph /  6.4km/h 5mph /  8km/h 75% 0in /  0.0mm 237 W/m2
12:06 65.8 °F /  18.8 °C 57.4 °F /  14.1 °C 29.9in /  1011.9hPa West 2mph /  3.2km/h 4mph /  6.4km/h 74% 0in /  0.0mm 199 W/m2
12:11 66 °F /  18.9 °C 57.6 °F /  14.2 °C 29.9in /  1011.9hPa NW 2mph /  3.2km/h 4mph /  6.4km/h 74% 0in /  0.0mm 218 W/m2
12:16 66.2 °F /  19 °C 57.7 °F /  14.3 °C 29.9in /  1011.9hPa NW 2mph /  3.2km/h 2mph /  3.2km/h 74% 0in /  0.0mm 234 W/m2
12:21 66.4 °F /  19.1 °C 57.4 °F /  14.1 °C 29.9in /  1011.5hPa NW 2.9mph /  4.7km/h 3mph /  4.8km/h 73% 0in /  0.0mm 253 W/m2
12:26 66.6 °F /  19.2 °C 57.6 °F /  14.2 °C 29.9in /  1011.5hPa North 2mph /  3.2km/h 3mph /  4.8km/h 73% 0in /  0.0mm 267 W/m2
12:31 66.7 °F /  19.3 °C 57.4 °F /  14.1 °C 29.9in /  1011.5hPa West 4mph /  6.4km/h 9mph /  14.5km/h 72% 0in /  0.0mm 278 W/m2
12:36 66.7 °F /  19.3 °C 57.7 °F /  14.3 °C 29.9in /  1011.5hPa West 2.9mph /  4.7km/h 5mph /  8km/h 73% 0in /  0.0mm 278 W/m2
12:41 66.7 °F /  19.3 °C 57.4 °F /  14.1 °C 29.9in /  1011.5hPa NNW 2mph /  3.2km/h 6mph /  9.7km/h 72% 0in /  0.0mm 274 W/m2
12:46 67.1 °F /  19.5 °C 57.7 °F /  14.3 °C 29.9in /  1011.5hPa NW 2mph /  3.2km/h 4mph /  6.4km/h 72% 0in /  0.0mm 234 W/m2
12:51 67.3 °F /  19.6 °C 57.6 °F /  14.2 °C 29.9in /  1011.5hPa WSW 4mph /  6.4km/h 6mph /  9.7km/h 71% 0in /  0.0mm 162 W/m2
12:56 67.1 °F /  19.5 °C 57 °F /  13.9 °C 29.9in /  1011.5hPa West 2mph /  3.2km/h 8mph /  12.9km/h 70% 0in /  0.0mm 146 W/m2
13:01 66.9 °F /  19.4 °C 56.8 °F /  13.8 °C 29.9in /  1011.5hPa West 2.9mph /  4.7km/h 6mph /  9.7km/h 70% 0in /  0.0mm 162 W/m2
13:06 66.9 °F /  19.4 °C 57.2 °F /  14 °C 29.9in /  1011.5hPa WNW 2.9mph /  4.7km/h 7mph /  11.3km/h 71% 0in /  0.0mm 199 W/m2
13:11 67.3 °F /  19.6 °C 57.6 °F /  14.2 °C 29.9in /  1011.2hPa WNW 2mph /  3.2km/h 3mph /  4.8km/h 71% 0in /  0.0mm 262 W/m2
13:16 67.5 °F /  19.7 °C 57 °F /  13.9 °C 29.9in /  1011.2hPa West 4mph /  6.4km/h 7mph /  11.3km/h 69% 0in /  0.0mm 294 W/m2
13:21 67.6 °F /  19.8 °C 56.7 °F /  13.7 °C 29.9in /  1011.2hPa WNW 2.9mph /  4.7km/h 8mph /  12.9km/h 68% 0in /  0.0mm 274 W/m2
13:26 67.8 °F /  19.9 °C 57.2 °F /  14 °C 29.9in /  1011.2hPa WSW 4mph /  6.4km/h 6mph /  9.7km/h 69% 0in /  0.0mm 265 W/m2
13:31 68 °F /  20 °C 57 °F /  13.9 °C 29.9in /  1011.5hPa WNW 6mph /  9.7km/h 8mph /  12.9km/h 68% 0in /  0.0mm 250 W/m2
13:36 67.8 °F /  19.9 °C 56.5 °F /  13.6 °C 29.9in /  1011.2hPa NW 6mph /  9.7km/h 8mph /  12.9km/h 67% 0in /  0.0mm 211 W/m2
13:41 67.8 °F /  19.9 °C 56.5 °F /  13.6 °C 29.9in /  1011.2hPa WSW 8.9mph /  14.3km/h 10mph /  16.1km/h 67% 0in /  0.0mm 202 W/m2
13:46 67.6 °F /  19.8 °C 56.3 °F /  13.5 °C 29.9in /  1011.2hPa West 4mph /  6.4km/h 9mph /  14.5km/h 67% 0in /  0.0mm 209 W/m2
13:51 67.6 °F /  19.8 °C 56.3 °F /  13.5 °C 29.9in /  1011.2hPa West 4mph /  6.4km/h 8mph /  12.9km/h 67% 0in /  0.0mm 206 W/m2
13:56 67.6 °F /  19.8 °C 56.3 °F /  13.5 °C 29.9in /  1011.2hPa WNW 2mph /  3.2km/h 8mph /  12.9km/h 67% 0in /  0.0mm 230 W/m2
14:01 67.8 °F /  19.9 °C 56.5 °F /  13.6 °C 29.9in /  1011.2hPa WSW 6.9mph /  11.1km/h 10mph /  16.1km/h 67% 0in /  0.0mm 243 W/m2
14:06 67.8 °F /  19.9 °C 56.1 °F /  13.4 °C 29.9in /  1011.2hPa WNW 2mph /  3.2km/h 7mph /  11.3km/h 66% 0in /  0.0mm 236 W/m2
14:11 68 °F /  20 °C 56.3 °F /  13.5 °C 29.9in /  1011.2hPa WNW 2.9mph /  4.7km/h 6mph /  9.7km/h 66% 0in /  0.0mm 241 W/m2
14:16 68.2 °F /  20.1 °C 55.9 °F /  13.3 °C 29.9in /  1011.2hPa WNW 4mph /  6.4km/h 7mph /  11.3km/h 65% 0in /  0.0mm 241 W/m2
14:21 68.2 °F /  20.1 °C 55.6 °F /  13.1 °C 29.9in /  1010.8hPa WNW 2mph /  3.2km/h 8mph /  12.9km/h 64% 0in /  0.0mm 234 W/m2
14:26 68.5 °F /  20.3 °C 55.9 °F /  13.3 °C 29.9in /  1010.8hPa West 2mph /  3.2km/h 6mph /  9.7km/h 64% 0in /  0.0mm 234 W/m2
14:32 68.5 °F /  20.3 °C 55.9 °F /  13.3 °C 29.9in /  1010.8hPa WNW 4mph /  6.4km/h 7mph /  11.3km/h 64% 0in /  0.0mm 213 W/m2
14:37 68.7 °F /  20.4 °C 55.2 °F /  12.9 °C 29.9in /  1010.8hPa SW 2.9mph /  4.7km/h 10mph /  16.1km/h 62% 0in /  0.0mm 202 W/m2
14:42 68.7 °F /  20.4 °C 55.2 °F /  12.9 °C 29.9in /  1010.8hPa West 4mph /  6.4km/h 7mph /  11.3km/h 62% 0in /  0.0mm 209 W/m2
14:47 68.9 °F /  20.5 °C 55.8 °F /  13.2 °C 29.9in /  1010.8hPa NW 0.9mph /  1.4km/h 10mph /  16.1km/h 63% 0in /  0.0mm 207 W/m2
14:52 69.3 °F /  20.7 °C 55.8 °F /  13.2 °C 29.9in /  1010.8hPa WSW 4mph /  6.4km/h 11mph /  17.7km/h 62% 0in /  0.0mm 218 W/m2
14:57 69.3 °F /  20.7 °C 55.8 °F /  13.2 °C 29.9in /  1010.8hPa West 2.9mph /  4.7km/h 4mph /  6.4km/h 62% 0in /  0.0mm 250 W/m2
15:02 69.4 °F /  20.8 °C 55.4 °F /  13 °C 29.9in /  1010.8hPa West 2.9mph /  4.7km/h 11mph /  17.7km/h 61% 0in /  0.0mm 269 W/m2
15:07 69.6 °F /  20.9 °C 55.6 °F /  13.1 °C 29.8in /  1010.5hPa WNW 4mph /  6.4km/h 4mph /  6.4km/h 61% 0in /  0.0mm 294 W/m2
15:12 70 °F /  21.1 °C 55.4 °F /  13 °C 29.8in /  1010.5hPa West 4mph /  6.4km/h 9mph /  14.5km/h 60% 0in /  0.0mm 304 W/m2
15:17 70.2 °F /  21.2 °C 55.2 °F /  12.9 °C 29.8in /  1010.5hPa NW 2mph /  3.2km/h 10mph /  16.1km/h 59% 0in /  0.0mm 271 W/m2
15:22 70.3 °F /  21.3 °C 55.4 °F /  13 °C 29.8in /  1010.5hPa West 2.9mph /  4.7km/h 6mph /  9.7km/h 59% 0in /  0.0mm 237 W/m2
15:27 70.5 °F /  21.4 °C 58.6 °F /  14.8 °C 29.8in /  1010.5hPa Calm   1mph /  1.6km/h 66% 0in /  0.0mm 229 W/m2
15:32 70.3 °F /  21.3 °C 58.8 °F /  14.9 °C 29.8in /  1010.5hPa ENE 4.9mph /  7.9km/h 6mph /  9.7km/h 67% 0in /  0.0mm 236 W/m2
15:37 70 °F /  21.1 °C 59 °F /  15 °C 29.8in /  1010.5hPa WNW 2mph /  3.2km/h 4mph /  6.4km/h 68% 0in /  0.0mm 591 W/m2
15:42 69.8 °F /  21 °C 58.3 °F /  14.6 °C 29.8in /  1010.5hPa NE 2.9mph /  4.7km/h 8mph /  12.9km/h 67% 0in /  0.0mm 253 W/m2
15:47 69.4 °F /  20.8 °C 58.5 °F /  14.7 °C 29.8in /  1010.5hPa West 2.9mph /  4.7km/h 3mph /  4.8km/h 68% 0in /  0.0mm 239 W/m2
15:52 69.3 °F /  20.7 °C 58.6 °F /  14.8 °C 29.8in /  1010.5hPa West 2mph /  3.2km/h 7mph /  11.3km/h 69% 0in /  0.0mm 271 W/m2
15:57 68.9 °F /  20.5 °C 58.3 °F /  14.6 °C 29.8in /  1010.5hPa West 2mph /  3.2km/h 5mph /  8km/h 69% 0in /  0.0mm 237 W/m2
16:02 69.1 °F /  20.6 °C 58.8 °F /  14.9 °C 29.8in /  1010.5hPa SSW 2mph /  3.2km/h 4mph /  6.4km/h 70% 0in /  0.0mm 722 W/m2
16:07 69.6 °F /  20.9 °C 59.4 °F /  15.2 °C 29.8in /  1010.5hPa NNW 0.9mph /  1.4km/h 6mph /  9.7km/h 70% 0in /  0.0mm 540 W/m2
16:12 69.6 °F /  20.9 °C 59 °F /  15 °C 29.8in /  1010.5hPa NE 0.9mph /  1.4km/h 1mph /  1.6km/h 69% 0in /  0.0mm 279 W/m2
16:17 69.6 °F /  20.9 °C 59 °F /  15 °C 29.8in /  1010.5hPa West 2mph /  3.2km/h 2mph /  3.2km/h 69% 0in /  0.0mm 172 W/m2
Juneau County Weather
Compliments of Weather Underground - 2 mb